Terminal Aerodrome Forecast
Issued by NWS

Home | Current Version | Previous Version | Text Only | Print | Product List | Glossary On
Versions: 1 2 3 4 5 6 7 8 9 10 11 12 13 14 15 16
000
FTUS41 KBOX 252339
TAFBED
TAF
KBED 252339Z 2600/2624 05006KT 2SM BR VCSH OVC006
     FM260400 03006KT 2SM -RA BR OVC003
     FM260600 02006KT 3SM RA BR OVC003
     FM261300 34004KT 3SM -RA BR OVC008
     FM261500 34006KT 3SM BR VCSH OVC008
     FM261700 33010KT 4SM BR VCSH OVC010
     FM261900 33010KT 6SM BR VCSH OVC020
     FM262100 32010KT P6SM OVC025=

USA.gov is the U.S. government's official web portal to all federal, state and local government web resources and services.